Time;durP1;ratioP1;P1;durP2;ratioP2;P2;SDS_P1;SDS_P2;PMS_P1;PMS_P2;Temp;Humidity;BMP_temperature;BMP_pressure;BME280_temperature;BME280_humidity;BME280_pressure;Samples;Min_cycle;Max_cycle;Signal;HPM_P1;HPM_P2
2021/07/19 00:02:02;;;;;;;0.70;0.55;;;18.10;74.10;;;;;;4915952;29;20028;-77
2021/07/19 00:04:33;;;;;;;0.60;0.60;;;18.00;74.00;;;;;;4910368;29;20055;-77
2021/07/19 00:06:59;;;;;;;0.50;0.50;;;17.90;74.10;;;;;;4914265;29;20483;-77
2021/07/19 00:09:26;;;;;;;0.70;0.70;;;18.00;74.10;;;;;;4915225;29;20059;-77
2021/07/19 00:11:52;;;;;;;0.60;0.50;;;17.90;74.10;;;;;;4898780;29;20036;-77
2021/07/19 00:14:20;;;;;;;0.65;0.63;;;17.80;74.10;;;;;;4898737;29;20047;-78
2021/07/19 00:16:46;;;;;;;0.75;0.70;;;17.80;74.20;;;;;;4915711;29;20044;-77
2021/07/19 00:19:12;;;;;;;0.88;0.75;;;17.80;74.20;;;;;;4916135;29;20510;-77
2021/07/19 00:21:38;;;;;;;0.65;0.57;;;17.80;74.40;;;;;;4915159;29;20095;-77
2021/07/19 00:24:05;;;;;;;0.68;0.68;;;17.80;74.40;;;;;;4915780;29;20044;-77
2021/07/19 00:26:32;;;;;;;1.15;0.80;;;17.70;74.50;;;;;;4916026;29;20812;-77
2021/07/19 00:28:58;;;;;;;0.75;0.63;;;17.70;74.50;;;;;;4915591;29;20376;-77
2021/07/19 00:31:25;;;;;;;0.98;0.70;;;17.70;74.40;;;;;;4916141;29;20048;-76
2021/07/19 00:33:52;;;;;;;1.02;0.82;;;17.70;74.50;;;;;;4915750;29;20471;-77
2021/07/19 00:36:18;;;;;;;0.85;0.70;;;17.60;74.50;;;;;;4915982;29;20052;-77
2021/07/19 00:38:44;;;;;;;1.77;0.60;;;17.60;74.60;;;;;;4913504;29;20068;-77
2021/07/19 00:41:11;;;;;;;0.57;0.57;;;17.60;74.60;;;;;;4898927;29;20079;-77
2021/07/19 00:43:37;;;;;;;1.10;0.88;;;17.60;74.70;;;;;;4915426;29;20036;-77
2021/07/19 00:46:04;;;;;;;1.10;0.80;;;17.60;74.70;;;;;;4898268;29;20062;-77
2021/07/19 00:48:30;;;;;;;0.50;0.50;;;17.50;74.70;;;;;;4915630;29;20033;-77
2021/07/19 00:50:57;;;;;;;0.80;0.60;;;17.60;74.80;;;;;;4914771;29;20048;-77
2021/07/19 00:53:24;;;;;;;0.73;0.70;;;17.50;74.80;;;;;;4898510;29;20040;-77
2021/07/19 00:55:55;;;;;;;0.70;0.63;;;17.50;74.80;;;;;;4898141;29;20044;-77
2021/07/19 00:58:24;;;;;;;0.80;0.70;;;17.50;74.90;;;;;;4896978;29;20427;-78
2021/07/19 01:00:53;;;;;;;0.88;0.63;;;17.40;74.90;;;;;;4898230;29;20048;-77
2021/07/19 01:03:22;;;;;;;0.75;0.73;;;17.40;75.00;;;;;;4912234;29;20036;-77
2021/07/19 01:05:49;;;;;;;0.95;0.57;;;17.40;75.00;;;;;;4896376;29;20052;-77
2021/07/19 01:08:18;;;;;;;0.70;0.70;;;17.40;75.00;;;;;;4915449;29;20037;-77
2021/07/19 01:10:45;;;;;;;0.70;0.50;;;17.30;75.10;;;;;;4915658;29;20040;-77
2021/07/19 01:13:11;;;;;;;1.27;0.70;;;17.40;75.10;;;;;;4915318;29;20043;-77
2021/07/19 01:15:39;;;;;;;0.85;0.73;;;17.30;75.20;;;;;;4898203;29;20036;-77
2021/07/19 01:18:07;;;;;;;1.10;0.65;;;17.30;75.20;;;;;;4914933;29;20479;-77
2021/07/19 01:20:56;;;;;;;0.93;0.60;;;17.30;75.30;;;;;;4912790;29;20036;-77
2021/07/19 01:23:55;;;;;;;0.60;0.60;;;17.30;75.40;;;;;;4896455;29;20048;-77
2021/07/19 01:26:47;;;;;;;0.75;0.68;;;17.40;75.50;;;;;;4913714;29;20052;-77
2021/07/19 01:29:15;;;;;;;0.70;0.60;;;17.20;75.50;;;;;;4894583;29;20033;-77
2021/07/19 01:31:46;;;;;;;1.02;0.70;;;17.20;75.50;;;;;;4915432;29;20088;-77
2021/07/19 01:34:23;;;;;;;0.70;0.70;;;17.10;75.60;;;;;;4897849;29;20091;-76
2021/07/19 01:36:56;;;;;;;0.85;0.75;;;17.10;75.70;;;;;;4913827;29;20039;-77
2021/07/19 01:39:23;;;;;;;1.00;0.80;;;17.00;75.80;;;;;;4898131;29;20059;-78
2021/07/19 01:41:51;;;;;;;1.17;0.90;;;17.00;75.90;;;;;;4897872;29;20087;-78
2021/07/19 01:44:18;;;;;;;0.80;0.63;;;16.90;76.00;;;;;;4914492;29;20479;-78
2021/07/19 01:46:47;;;;;;;0.95;0.63;;;16.90;76.10;;;;;;4914745;29;20036;-77
2021/07/19 01:49:14;;;;;;;0.90;0.80;;;16.90;76.20;;;;;;4914729;29;20099;-78
2021/07/19 01:51:41;;;;;;;0.88;0.60;;;16.90;76.20;;;;;;4881967;29;20044;-78
2021/07/19 01:54:09;;;;;;;0.60;0.50;;;16.90;76.30;;;;;;4897901;29;20400;-78
2021/07/19 01:56:36;;;;;;;0.60;0.60;;;16.90;76.30;;;;;;4912272;29;20037;-77
2021/07/19 01:59:04;;;;;;;0.55;0.52;;;16.90;76.40;;;;;;4898012;29;20039;-77
2021/07/19 02:01:30;;;;;;;1.13;0.70;;;16.80;76.30;;;;;;4916259;29;20036;-77
2021/07/19 02:03:56;;;;;;;0.85;0.80;;;16.80;76.40;;;;;;4916784;29;20127;-76
2021/07/19 02:06:25;;;;;;;1.13;0.90;;;16.70;76.40;;;;;;4900779;29;20135;-77
2021/07/19 02:08:54;;;;;;;1.58;0.77;;;16.70;76.60;;;;;;4916172;29;20036;-77
2021/07/19 02:11:26;;;;;;;1.48;0.70;;;16.70;76.70;;;;;;4916185;29;20036;-77
2021/07/19 02:13:52;;;;;;;0.80;0.80;;;16.60;76.70;;;;;;4916661;29;20040;-77
2021/07/19 02:16:22;;;;;;;0.77;0.63;;;16.60;76.70;;;;;;4916292;29;20427;-77
2021/07/19 02:18:50;;;;;;;1.05;0.90;;;16.50;76.80;;;;;;4916418;29;20091;-77
2021/07/19 02:21:20;;;;;;;0.80;0.60;;;16.50;76.90;;;;;;4916186;29;20040;-77
2021/07/19 02:23:47;;;;;;;0.68;0.68;;;16.50;77.10;;;;;;4917387;29;20513;-77
2021/07/19 02:26:14;;;;;;;0.73;0.70;;;16.40;77.20;;;;;;4917408;29;20074;-77
2021/07/19 02:28:41;;;;;;;0.75;0.75;;;16.40;77.20;;;;;;4897468;29;20047;-77
2021/07/19 02:31:09;;;;;;;0.75;0.75;;;16.40;77.30;;;;;;4916309;29;20028;-77
2021/07/19 02:33:37;;;;;;;0.75;0.60;;;16.30;77.30;;;;;;4917858;29;20040;-77
2021/07/19 02:36:06;;;;;;;2.00;0.70;;;16.30;77.40;;;;;;4917180;29;20040;-77
2021/07/19 02:38:33;;;;;;;0.70;0.60;;;16.30;77.50;;;;;;4900396;29;20048;-76
2021/07/19 02:41:00;;;;;;;0.70;0.63;;;16.30;77.50;;;;;;4917486;29;20059;-77
2021/07/19 02:43:27;;;;;;;0.82;0.68;;;16.20;77.50;;;;;;4917122;29;20047;-77
2021/07/19 02:45:55;;;;;;;0.60;0.60;;;16.20;77.60;;;;;;4884659;29;20040;-77
2021/07/19 02:48:24;;;;;;;0.85;0.70;;;16.20;77.70;;;;;;4916509;29;20471;-77
2021/07/19 02:50:54;;;;;;;1.20;0.90;;;16.20;77.80;;;;;;4917613;29;20028;-77
2021/07/19 02:53:23;;;;;;;0.70;0.70;;;16.10;77.80;;;;;;4899712;29;20036;-77
2021/07/19 02:55:49;;;;;;;1.02;0.80;;;16.10;77.80;;;;;;4916858;29;20040;-76
2021/07/19 02:58:16;;;;;;;1.83;0.98;;;16.10;78.00;;;;;;4917057;29;20541;-77
2021/07/19 03:00:44;;;;;;;0.55;0.55;;;16.10;78.10;;;;;;4917120;29;20036;-77
2021/07/19 03:03:18;;;;;;;1.85;0.70;;;16.00;78.10;;;;;;4917051;29;20036;-77
2021/07/19 03:05:50;;;;;;;0.75;0.50;;;16.00;78.10;;;;;;4914795;29;20505;-77
2021/07/19 03:08:18;;;;;;;0.65;0.65;;;16.00;78.20;;;;;;4915391;29;20119;-77
2021/07/19 03:10:49;;;;;;;0.55;0.55;;;16.00;78.20;;;;;;4917085;29;20044;-76
2021/07/19 03:13:24;;;;;;;0.50;0.50;;;16.00;78.20;;;;;;4914707;29;20483;-77
2021/07/19 03:15:52;;;;;;;1.02;0.70;;;16.00;78.30;;;;;;4916776;29;20064;-77
2021/07/19 03:18:21;;;;;;;1.10;0.80;;;15.90;78.20;;;;;;4898426;29;20044;-77
2021/07/19 03:20:50;;;;;;;0.98;0.60;;;15.90;78.20;;;;;;4915076;29;20119;-77
2021/07/19 03:23:20;;;;;;;0.82;0.70;;;15.90;78.30;;;;;;4915579;29;20040;-77
2021/07/19 03:25:46;;;;;;;0.50;0.50;;;15.90;78.40;;;;;;4897856;29;20047;-76
2021/07/19 03:28:16;;;;;;;0.85;0.70;;;15.80;78.40;;;;;;4916706;29;20107;-77
2021/07/19 03:30:44;;;;;;;0.98;0.70;;;15.80;78.50;;;;;;4916560;29;20059;-77
2021/07/19 03:33:11;;;;;;;0.80;0.80;;;15.80;78.60;;;;;;4915099;29;20032;-77
2021/07/19 03:35:37;;;;;;;0.95;0.70;;;15.80;78.60;;;;;;4916726;29;20036;-77
2021/07/19 03:38:04;;;;;;;0.85;0.80;;;15.80;78.70;;;;;;4898913;29;20036;-76
2021/07/19 03:40:32;;;;;;;1.20;0.65;;;15.80;78.70;;;;;;4916811;29;20479;-77
2021/07/19 03:43:00;;;;;;;0.60;0.55;;;15.80;78.70;;;;;;4916616;29;20048;-77
2021/07/19 03:45:27;;;;;;;0.70;0.70;;;15.80;78.80;;;;;;4913989;29;20412;-77
2021/07/19 03:47:53;;;;;;;0.70;0.70;;;15.80;78.80;;;;;;4915212;29;20036;-77
2021/07/19 03:50:20;;;;;;;0.93;0.70;;;15.80;78.80;;;;;;4898947;29;20487;-76
2021/07/19 03:52:50;;;;;;;0.60;0.60;;;15.70;78.80;;;;;;4916364;29;20063;-77
2021/07/19 03:55:17;;;;;;;2.25;0.70;;;15.70;78.90;;;;;;4914896;29;20398;-77
2021/07/19 03:57:44;;;;;;;1.23;0.60;;;15.70;78.90;;;;;;4914336;29;20044;-77
2021/07/19 04:00:13;;;;;;;1.02;0.70;;;15.70;79.00;;;;;;4916116;29;20056;-77
2021/07/19 04:02:42;;;;;;;0.82;0.63;;;15.70;79.00;;;;;;4914950;29;20435;-77
2021/07/19 04:05:14;;;;;;;1.05;0.80;;;15.70;79.00;;;;;;4899053;29;20064;-77
2021/07/19 04:07:43;;;;;;;0.60;0.60;;;15.70;79.00;;;;;;4915008;29;20368;-76
2021/07/19 04:10:12;;;;;;;0.47;0.47;;;15.70;79.00;;;;;;4915928;29;20117;-77
2021/07/19 04:12:45;;;;;;;0.77;0.60;;;15.70;79.10;;;;;;4916028;29;20036;-76
2021/07/19 04:15:11;;;;;;;1.25;0.63;;;15.70;79.10;;;;;;4914386;29;20835;-77
2021/07/19 04:17:37;;;;;;;0.60;0.60;;;15.70;79.10;;;;;;4898915;29;20068;-77
2021/07/19 04:20:07;;;;;;;1.02;0.65;;;15.70;79.00;;;;;;4914771;29;20032;-77
2021/07/19 04:22:34;;;;;;;0.70;0.70;;;15.70;79.10;;;;;;4914690;29;20040;-77
2021/07/19 04:25:06;;;;;;;0.60;0.60;;;15.70;79.10;;;;;;4914562;29;20052;-77
2021/07/19 04:27:34;;;;;;;0.70;0.68;;;15.80;79.10;;;;;;4913980;29;20491;-77
2021/07/19 04:30:01;;;;;;;0.60;0.60;;;15.80;79.10;;;;;;4915652;29;20039;-77
2021/07/19 04:32:27;;;;;;;0.77;0.68;;;15.80;79.10;;;;;;4916091;29;20078;-76
2021/07/19 04:34:53;;;;;;;0.60;0.60;;;15.80;79.10;;;;;;4898018;29;20385;-77
2021/07/19 04:37:20;;;;;;;0.40;0.40;;;15.80;79.00;;;;;;4916030;29;20092;-77
2021/07/19 04:39:46;;;;;;;0.85;0.65;;;15.80;79.00;;;;;;4898680;29;20037;-77
2021/07/19 04:42:12;;;;;;;0.50;0.50;;;15.80;78.90;;;;;;4915577;29;20047;-78
2021/07/19 04:44:39;;;;;;;0.50;0.50;;;15.90;79.10;;;;;;4915494;29;20395;-76
2021/07/19 04:47:07;;;;;;;0.63;0.63;;;15.90;79.10;;;;;;4913941;29;20047;-77
2021/07/19 04:49:37;;;;;;;0.57;0.57;;;15.90;79.10;;;;;;4898713;29;20493;-77
2021/07/19 04:52:04;;;;;;;0.50;0.50;;;16.00;79.10;;;;;;4898525;29;20467;-76
2021/07/19 04:54:38;;;;;;;2.05;0.70;;;16.00;79.00;;;;;;4882654;29;21072;-76
2021/07/19 04:57:08;;;;;;;0.85;0.60;;;16.00;78.90;;;;;;4898652;29;20036;-76
2021/07/19 04:59:40;;;;;;;0.77;0.60;;;16.10;78.90;;;;;;4914269;29;20595;-77
2021/07/19 05:02:10;;;;;;;0.93;0.70;;;16.20;78.80;;;;;;4898482;29;20435;-77
2021/07/19 05:04:39;;;;;;;0.60;0.60;;;16.20;78.70;;;;;;4898395;29;20087;-77
2021/07/19 05:07:07;;;;;;;0.57;0.50;;;16.30;78.70;;;;;;4914116;29;20063;-77
2021/07/19 05:09:35;;;;;;;0.80;0.70;;;16.30;78.50;;;;;;4897930;29;20041;-77
2021/07/19 05:12:01;;;;;;;0.75;0.70;;;16.40;78.40;;;;;;4915472;29;20044;-77
2021/07/19 05:14:28;;;;;;;0.85;0.73;;;16.50;78.40;;;;;;4896485;29;20566;-77
2021/07/19 05:16:57;;;;;;;1.27;0.80;;;16.50;78.30;;;;;;4898311;29;20040;-77
2021/07/19 05:19:24;;;;;;;0.77;0.60;;;16.70;78.30;;;;;;4883039;29;20033;-77
2021/07/19 05:21:49;;;;;;;0.90;0.70;;;16.70;78.10;;;;;;4915465;29;20386;-77
2021/07/19 05:24:15;;;;;;;0.90;0.70;;;16.90;78.00;;;;;;4915307;29;20029;-77
2021/07/19 05:26:42;;;;;;;0.77;0.70;;;17.00;77.80;;;;;;4915241;29;20065;-78
2021/07/19 05:29:08;;;;;;;1.25;0.70;;;17.10;77.60;;;;;;4914319;29;20050;-77
2021/07/19 05:31:33;;;;;;;1.20;0.68;;;17.20;77.50;;;;;;4914986;29;20040;-77
2021/07/19 05:34:00;;;;;;;0.60;0.60;;;17.30;77.30;;;;;;4896931;29;20036;-77
2021/07/19 05:36:26;;;;;;;0.60;0.60;;;17.50;77.20;;;;;;4915465;29;20088;-77
2021/07/19 05:38:52;;;;;;;1.10;0.75;;;17.50;77.00;;;;;;4918358;29;20127;-77
2021/07/19 05:41:19;;;;;;;1.52;0.93;;;17.70;76.90;;;;;;4917631;29;20044;-77
2021/07/19 05:43:44;;;;;;;1.55;0.98;;;17.70;76.80;;;;;;4915146;29;20036;-77
2021/07/19 05:46:11;;;;;;;1.08;0.80;;;17.70;76.70;;;;;;4916976;29;20040;-77
2021/07/19 05:48:38;;;;;;;0.70;0.70;;;17.80;76.80;;;;;;4901080;29;20068;-77
2021/07/19 05:51:05;;;;;;;1.20;0.95;;;17.90;76.80;;;;;;4917031;29;20144;-77
2021/07/19 05:53:30;;;;;;;1.38;0.85;;;18.00;76.70;;;;;;4901180;29;20071;-77
2021/07/19 05:55:57;;;;;;;0.80;0.80;;;18.20;76.60;;;;;;4915159;29;20060;-77
2021/07/19 05:58:23;;;;;;;0.82;0.80;;;18.20;76.30;;;;;;4917857;29;20041;-77
2021/07/19 06:00:49;;;;;;;0.82;0.80;;;18.30;76.20;;;;;;4917924;29;20040;-77
2021/07/19 06:03:16;;;;;;;1.00;0.85;;;18.40;76.10;;;;;;4918234;29;20040;-78
2021/07/19 06:05:42;;;;;;;0.85;0.80;;;18.40;76.00;;;;;;4917866;29;20052;-77
2021/07/19 06:08:09;;;;;;;1.70;1.15;;;18.40;75.90;;;;;;4900781;29;20040;-78
2021/07/19 06:10:34;;;;;;;1.60;0.82;;;18.50;75.90;;;;;;4918093;29;20036;-77
2021/07/19 06:13:00;;;;;;;1.17;0.80;;;18.60;75.90;;;;;;4916440;29;20501;-77
2021/07/19 06:15:26;;;;;;;1.63;0.90;;;18.50;75.90;;;;;;4916376;29;20047;-77
2021/07/19 06:17:52;;;;;;;1.58;1.13;;;18.60;75.90;;;;;;4899838;29;20460;-77
2021/07/19 06:20:29;;;;;;;1.98;1.20;;;18.60;76.50;;;;;;4917315;29;20040;-76
2021/07/19 06:23:02;;;;;;;2.22;1.30;;;18.60;75.90;;;;;;4900383;29;20044;-76
2021/07/19 06:25:33;;;;;;;1.85;1.30;;;18.60;75.90;;;;;;4916249;29;20044;-78
2021/07/19 06:28:01;;;;;;;1.90;1.27;;;18.60;76.00;;;;;;4900428;29;20460;-78
2021/07/19 06:30:54;;;;;;;1.35;1.10;;;18.70;76.20;;;;;;4916507;29;20107;-79
2021/07/19 06:33:21;;;;;;;1.45;1.10;;;18.70;76.00;;;;;;4903353;29;20056;-79
2021/07/19 06:35:47;;;;;;;1.95;1.25;;;18.60;76.10;;;;;;4900266;29;20043;-78
2021/07/19 06:38:14;;;;;;;1.48;1.00;;;18.60;76.20;;;;;;4918167;29;20068;-80
2021/07/19 06:40:42;;;;;;;1.00;0.82;;;18.70;76.20;;;;;;4916638;29;20063;-80
2021/07/19 06:43:46;;;;;;;1.40;1.10;;;18.70;76.20;;;;;;4899289;29;20111;-81
2021/07/19 06:46:15;;;;;;;1.33;1.10;;;18.90;76.20;;;;;;4893926;29;20094;-80
2021/07/19 06:48:42;;;;;;;1.10;1.00;;;18.90;76.00;;;;;;4885526;29;20859;-79
2021/07/19 06:51:08;;;;;;;1.73;1.25;;;19.00;75.80;;;;;;4917641;29;20036;-79
2021/07/19 06:53:36;;;;;;;1.90;1.23;;;19.10;75.60;;;;;;4917423;29;20039;-79
2021/07/19 06:56:03;;;;;;;1.05;0.80;;;19.30;75.30;;;;;;4899866;29;20063;-78
2021/07/19 06:58:28;;;;;;;1.13;0.98;;;19.30;75.30;;;;;;4900194;29;20040;-79
2021/07/19 07:00:55;;;;;;;2.35;1.15;;;19.30;75.30;;;;;;4884248;29;20043;-79
2021/07/19 07:03:20;;;;;;;1.85;1.15;;;19.30;75.30;;;;;;4917207;29;20048;-80
2021/07/19 07:05:46;;;;;;;2.65;1.10;;;19.30;75.30;;;;;;4884032;29;20055;-79
2021/07/19 07:08:12;;;;;;;1.90;1.20;;;19.40;75.30;;;;;;4904378;29;20044;-80
2021/07/19 07:10:37;;;;;;;1.23;1.00;;;19.40;75.40;;;;;;4917373;29;20040;-79
2021/07/19 07:13:09;;;;;;;1.65;1.17;;;19.60;75.50;;;;;;4901383;29;20036;-79
2021/07/19 07:15:37;;;;;;;1.08;0.90;;;19.60;75.50;;;;;;4918265;29;20040;-78
2021/07/19 07:18:06;;;;;;;1.55;1.10;;;19.50;75.40;;;;;;4917473;29;20108;-80
2021/07/19 07:20:31;;;;;;;1.80;1.08;;;19.60;75.40;;;;;;4915427;29;20100;-79
2021/07/19 07:22:58;;;;;;;1.15;0.95;;;19.60;75.30;;;;;;4899749;29;20040;-78
2021/07/19 07:25:24;;;;;;;1.35;0.93;;;19.60;75.30;;;;;;4916893;29;20134;-79
2021/07/19 07:27:50;;;;;;;1.58;1.13;;;19.70;75.40;;;;;;4915577;29;20123;-78
2021/07/19 07:30:16;;;;;;;1.33;0.90;;;19.80;75.40;;;;;;4915225;29;20048;-78
2021/07/19 07:32:43;;;;;;;1.60;1.10;;;19.80;75.30;;;;;;4916566;29;20083;-79
2021/07/19 07:35:09;;;;;;;1.83;1.15;;;19.90;75.20;;;;;;4917199;29;20047;-78
2021/07/19 07:37:37;;;;;;;1.63;1.00;;;19.90;75.20;;;;;;4915687;29;20099;-78
2021/07/19 07:40:06;;;;;;;1.17;1.00;;;19.90;75.20;;;;;;4917263;29;20063;-78
2021/07/19 07:42:32;;;;;;;1.42;1.00;;;20.00;75.20;;;;;;4917206;29;20072;-77
2021/07/19 07:45:00;;;;;;;1.15;0.88;;;20.10;75.20;;;;;;4898269;29;20041;-78
2021/07/19 07:47:26;;;;;;;1.00;0.95;;;20.10;75.10;;;;;;4898138;29;20480;-79
2021/07/19 07:49:52;;;;;;;1.83;1.00;;;20.10;75.10;;;;;;4914990;29;20044;-77
2021/07/19 07:52:19;;;;;;;2.08;1.00;;;20.20;75.10;;;;;;4916493;29;20076;-77
2021/07/19 07:54:46;;;;;;;2.28;1.00;;;20.30;74.80;;;;;;4899096;29;20472;-77
2021/07/19 07:57:13;;;;;;;1.88;1.30;;;20.40;74.60;;;;;;4914591;29;20036;-79
2021/07/19 07:59:39;;;;;;;1.33;0.93;;;20.50;74.30;;;;;;4898759;29;20059;-78
2021/07/19 08:02:05;;;;;;;1.63;1.00;;;20.50;74.20;;;;;;4915951;29;20044;-79
2021/07/19 08:04:33;;;;;;;1.23;1.10;;;20.50;74.10;;;;;;4917029;29;20122;-79
2021/07/19 08:07:01;;;;;;;2.15;1.20;;;20.60;73.90;;;;;;4914834;29;20028;-78
2021/07/19 08:09:30;;;;;;;1.42;1.08;;;20.50;73.80;;;;;;4916164;29;20036;-78
2021/07/19 08:11:57;;;;;;;1.77;1.05;;;20.60;73.80;;;;;;4914525;29;20402;-79
2021/07/19 08:14:24;;;;;;;1.90;1.10;;;20.70;73.60;;;;;;4898968;29;20029;-79
2021/07/19 08:16:50;;;;;;;1.60;1.40;;;20.70;73.50;;;;;;4882757;29;20395;-78
2021/07/19 08:19:16;;;;;;;2.13;1.50;;;20.70;73.30;;;;;;4914555;29;20036;-79
2021/07/19 08:21:43;;;;;;;1.45;1.00;;;20.80;73.10;;;;;;4898573;29;20032;-78
2021/07/19 08:24:09;;;;;;;1.50;1.20;;;20.90;73.00;;;;;;4898595;29;20084;-79
2021/07/19 08:26:36;;;;;;;1.83;1.10;;;20.90;72.90;;;;;;4882971;29;20044;-80
2021/07/19 08:29:04;;;;;;;1.35;1.15;;;20.90;72.70;;;;;;4913311;29;20048;-78
2021/07/19 08:31:31;;;;;;;1.67;1.20;;;20.80;72.80;;;;;;4881485;29;20037;-79
2021/07/19 08:33:57;;;;;;;1.55;1.15;;;20.90;73.00;;;;;;4882670;29;20458;-80
2021/07/19 08:36:25;;;;;;;1.70;1.15;;;20.90;73.10;;;;;;4914331;29;20040;-80
2021/07/19 08:38:51;;;;;;;1.42;1.20;;;21.00;73.10;;;;;;4882712;29;20085;-79
2021/07/19 08:41:18;;;;;;;1.13;1.02;;;21.00;73.10;;;;;;4912642;29;20091;-81
2021/07/19 08:43:46;;;;;;;1.85;1.20;;;21.10;72.90;;;;;;4898762;29;20047;-80
2021/07/19 08:46:13;;;;;;;1.50;1.17;;;21.10;72.60;;;;;;4898478;29;20071;-80
2021/07/19 08:48:39;;;;;;;1.80;1.13;;;21.00;72.50;;;;;;4913592;29;20048;-80
2021/07/19 08:51:06;;;;;;;1.23;1.10;;;21.10;72.60;;;;;;4898796;29;20123;-79
2021/07/19 08:53:33;;;;;;;1.92;1.25;;;21.00;72.70;;;;;;4916672;29;20040;-79
2021/07/19 08:56:00;;;;;;;1.75;1.30;;;21.00;72.90;;;;;;4915411;29;20040;-79
2021/07/19 08:58:28;;;;;;;1.55;1.15;;;21.00;72.90;;;;;;4915087;29;20032;-79
2021/07/19 09:00:58;;;;;;;2.00;1.20;;;21.00;73.00;;;;;;4898003;29;20460;-79
2021/07/19 09:03:25;;;;;;;1.80;1.23;;;21.00;73.20;;;;;;4897721;29;20040;-79
2021/07/19 09:05:52;;;;;;;1.65;1.20;;;20.90;73.40;;;;;;4898097;29;20052;-79
2021/07/19 09:08:18;;;;;;;1.63;1.30;;;20.80;73.40;;;;;;4915370;29;20413;-79
2021/07/19 09:10:44;;;;;;;2.33;1.48;;;20.80;73.50;;;;;;4914426;29;20035;-79
2021/07/19 09:13:19;;;;;;;1.30;1.10;;;20.90;73.50;;;;;;4897926;29;20502;-79
2021/07/19 09:15:46;;;;;;;1.77;1.20;;;21.20;73.40;;;;;;4882379;29;20044;-78
2021/07/19 09:18:23;;;;;;;2.10;1.25;;;21.20;73.00;;;;;;4914069;29;20435;-78
2021/07/19 09:20:50;;;;;;;1.88;1.42;;;21.20;72.70;;;;;;4915432;29;20036;-79
2021/07/19 09:23:28;;;;;;;1.90;1.42;;;21.10;72.90;;;;;;4898183;29;20052;-80
2021/07/19 09:25:55;;;;;;;1.63;1.17;;;21.10;72.90;;;;;;4913685;29;20499;-79
2021/07/19 09:28:29;;;;;;;1.60;1.20;;;21.10;72.90;;;;;;4913596;29;20028;-78
2021/07/19 09:31:06;;;;;;;1.33;1.20;;;21.10;73.00;;;;;;4896688;29;20036;-79
2021/07/19 09:33:31;;;;;;;1.50;1.20;;;21.10;72.80;;;;;;4882339;29;20072;-79
2021/07/19 09:36:02;;;;;;;2.53;1.60;;;21.20;72.80;;;;;;4913362;29;20075;-81
2021/07/19 09:38:29;;;;;;;1.55;1.23;;;21.30;72.60;;;;;;4899018;29;20036;-80
2021/07/19 09:41:00;;;;;;;1.67;1.30;;;21.40;72.40;;;;;;4897961;29;20037;-79
2021/07/19 09:43:29;;;;;;;2.00;1.20;;;21.50;72.20;;;;;;4896461;29;20087;-80
2021/07/19 09:45:57;;;;;;;1.80;1.40;;;21.60;71.90;;;;;;4911672;29;20056;-79
2021/07/19 09:48:23;;;;;;;2.42;1.33;;;21.90;71.80;;;;;;4898034;29;20036;-80
2021/07/19 09:50:52;;;;;;;1.60;1.30;;;21.80;71.30;;;;;;4897294;29;20055;-80
2021/07/19 09:53:38;;;;;;;1.83;1.30;;;22.00;71.10;;;;;;4915074;29;20491;-79
2021/07/19 09:59:14;;;;;;;1.95;1.45;;;22.20;71.10;;;;;;4762880;30;20043;-79
2021/07/19 10:01:43;;;;;;;4.35;1.92;;;22.20;70.80;;;;;;4766033;30;20427;-81
2021/07/19 10:07:37;;;;;;;2.80;1.60;;;22.10;70.70;;;;;;4771600;29;20086;-79
2021/07/19 10:10:10;;;;;;;2.40;1.55;;;22.10;71.00;;;;;;4730212;30;20083;-79
2021/07/19 10:12:36;;;;;;;1.98;1.50;;;22.10;71.00;;;;;;4722356;30;20575;-80
2021/07/19 10:15:05;;;;;;;3.15;1.48;;;22.10;71.00;;;;;;4729784;30;20166;-79
2021/07/19 10:17:33;;;;;;;1.52;1.27;;;22.20;71.20;;;;;;4738802;30;20138;-80
2021/07/19 10:20:00;;;;;;;2.00;1.50;;;22.20;71.10;;;;;;4730520;30;20056;-79
2021/07/19 10:22:27;;;;;;;1.63;1.35;;;22.30;70.80;;;;;;4742185;30;20044;-79
2021/07/19 10:25:00;;;;;;;2.25;1.50;;;22.50;70.30;;;;;;4723477;30;20052;-79
2021/07/19 10:27:27;;;;;;;1.77;1.50;;;22.60;70.00;;;;;;4718732;30;20120;-78
2021/07/19 10:29:55;;;;;;;2.05;1.50;;;22.70;70.10;;;;;;4784646;29;20129;-80
2021/07/19 10:32:23;;;;;;;1.40;1.20;;;22.80;69.90;;;;;;4807439;29;20050;-80
2021/07/19 10:37:52;;;;;;;1.42;1.20;;;23.00;69.80;;;;;;4772796;29;20051;-78
2021/07/19 10:40:25;;;;;;;2.10;1.30;;;23.10;69.50;;;;;;4800103;29;20086;-78
2021/07/19 10:43:05;;;;;;;2.05;1.58;;;23.40;69.10;;;;;;4841006;29;20042;-79
2021/07/19 10:45:40;;;;;;;2.95;1.45;;;23.40;68.70;;;;;;4838911;29;20058;-79
2021/07/19 10:48:07;;;;;;;2.25;1.70;;;23.50;68.70;;;;;;4840672;29;20072;-79
2021/07/19 10:50:40;;;;;;;2.35;1.70;;;23.50;68.80;;;;;;4840332;29;20405;-80
2021/07/19 10:53:17;;;;;;;3.10;1.73;;;23.30;68.90;;;;;;4841272;29;20138;-80
2021/07/19 10:55:44;;;;;;;2.30;1.60;;;23.00;69.50;;;;;;4854969;29;20050;-80
2021/07/19 10:58:17;;;;;;;1.92;1.65;;;22.90;70.10;;;;;;4840104;29;20046;-80
2021/07/19 11:00:47;;;;;;;2.38;1.60;;;22.80;70.40;;;;;;4840444;29;20042;-79
2021/07/19 11:03:17;;;;;;;2.15;1.55;;;22.80;70.30;;;;;;4840071;29;20050;-79
2021/07/19 11:05:46;;;;;;;;;;;22.90;70.30;;;;;;4825036;29;20042;-79
2021/07/19 11:08:25;;;;;;;2.05;1.42;;;23.00;70.20;;;;;;4874214;29;19954;-79
2021/07/19 11:10:53;;;;;;;1.60;1.23;;;23.10;69.90;;;;;;4900803;29;20041;-78
2021/07/19 11:13:39;;;;;;;1.83;1.33;;;23.10;69.70;;;;;;4917063;29;20032;-77
2021/07/19 11:16:20;;;;;;;1.85;1.50;;;23.20;69.50;;;;;;4916891;29;20051;-78
2021/07/19 11:19:02;;;;;;;;;;;23.20;69.50;;;;;;4901023;29;20044;-78
2021/07/19 11:21:33;;;;;;;1.92;1.30;;;23.30;69.60;;;;;;4900028;29;19915;-78
2021/07/19 11:24:09;;;;;;;1.77;1.30;;;23.40;69.40;;;;;;4913063;29;20055;-78
2021/07/19 11:26:48;;;;;;;1.73;1.48;;;23.40;69.10;;;;;;4883880;29;20036;-77
2021/07/19 11:29:28;;;;;;;2.83;1.70;;;23.40;69.20;;;;;;4898026;29;20032;-77
2021/07/19 11:32:06;;;;;;;2.55;1.67;;;23.50;68.90;;;;;;4899743;29;20543;-78
2021/07/19 11:34:34;;;;;;;2.50;1.70;;;23.60;68.80;;;;;;4916167;29;20044;-77
2021/07/19 11:37:02;;;;;;;2.47;1.67;;;23.60;68.90;;;;;;4900076;29;20398;-78
2021/07/19 11:39:27;;;;;;;2.45;1.70;;;23.70;68.50;;;;;;4916467;29;20115;-78
2021/07/19 11:42:01;;;;;;;2.10;1.52;;;23.60;68.50;;;;;;4901609;29;20475;-77
2021/07/19 11:44:32;;;;;;;2.42;1.90;;;23.80;68.40;;;;;;4915719;29;20066;-78
2021/07/19 11:46:58;;;;;;;;;;;23.90;68.00;;;;;;4917859;29;20513;-78
2021/07/19 11:49:26;;;;;;;2.83;2.00;;;24.00;67.70;;;;;;4886301;29;19931;-77
2021/07/19 11:51:52;;;;;;;2.60;1.80;;;24.10;67.70;;;;;;4918700;29;20083;-78
2021/07/19 11:54:19;;;;;;;2.65;1.85;;;24.20;67.40;;;;;;4903168;29;20036;-77
2021/07/19 11:56:48;;;;;;;3.60;2.17;;;24.30;66.90;;;;;;4915578;29;20051;-77
2021/07/19 11:59:22;;;;;;;2.75;1.90;;;24.20;66.80;;;;;;4914224;29;20043;-78
2021/07/19 12:02:04;;;;;;;4.00;2.42;;;24.10;67.00;;;;;;4898930;29;20040;-78
2021/07/19 12:04:42;;;;;;;4.32;2.63;;;24.10;67.20;;;;;;4889167;29;20139;-81
2021/07/19 12:07:09;;;;;;;4.35;2.55;;;24.00;66.80;;;;;;4902186;29;20063;-79
2021/07/19 12:09:39;;;;;;;3.80;2.42;;;24.00;67.00;;;;;;4885785;29;20511;-78
2021/07/19 12:12:06;;;;;;;2.80;2.13;;;24.00;67.00;;;;;;4917479;29;20028;-78
2021/07/19 12:14:32;;;;;;;3.13;2.00;;;24.00;66.80;;;;;;4900007;29;20075;-79
2021/07/19 12:16:59;;;;;;;3.00;2.10;;;23.90;66.90;;;;;;4916069;29;20048;-78
2021/07/19 12:19:26;;;;;;;2.58;1.83;;;24.00;67.20;;;;;;4918695;29;20447;-82
2021/07/19 12:22:42;;;;;;;3.05;1.90;;;23.80;67.30;;;;;;4848158;29;20049;-81
2021/07/19 12:29:02;;;;;;;2.30;1.50;;;23.40;67.90;;;;;;4773624;29;20051;-83
2021/07/19 12:31:53;;;;;;;1.90;1.40;;;23.30;68.40;;;;;;4754470;30;20416;-78
2021/07/19 12:34:25;;;;;;;2.03;1.60;;;23.20;68.60;;;;;;4752194;30;20097;-79
2021/07/19 12:36:56;;;;;;;2.42;1.40;;;23.30;68.80;;;;;;4761574;30;20422;-80
2021/07/19 12:39:29;;;;;;;2.40;1.70;;;23.10;68.60;;;;;;4763302;30;20050;-82
2021/07/19 12:41:56;;;;;;;3.30;1.80;;;23.10;68.80;;;;;;4781987;30;20040;-81
2021/07/19 12:44:27;;;;;;;2.67;1.95;;;23.10;68.80;;;;;;4779781;30;20142;-82
2021/07/19 12:46:54;;;;;;;2.40;1.60;;;23.10;68.70;;;;;;4755931;30;20044;-83
2021/07/19 12:49:37;;;;;;;3.75;1.90;;;23.20;68.60;;;;;;4757727;30;20040;-80
2021/07/19 12:52:11;;;;;;;2.10;1.55;;;23.40;68.10;;;;;;4779738;30;20495;-80
2021/07/19 12:54:41;;;;;;;2.63;1.80;;;23.60;67.70;;;;;;4793843;29;20085;-77
2021/07/19 12:57:09;;;;;;;2.27;1.53;;;23.60;67.40;;;;;;4774833;30;20035;-82
2021/07/19 12:59:36;;;;;;;2.55;1.88;;;23.80;67.10;;;;;;4842593;29;20037;-78
2021/07/19 13:02:03;;;;;;;3.03;2.20;;;23.90;66.70;;;;;;4877853;29;20051;-79
2021/07/19 13:04:29;;;;;;;2.78;1.75;;;24.00;66.40;;;;;;4919949;29;20054;-79
2021/07/19 13:06:57;;;;;;;3.13;2.00;;;24.10;66.30;;;;;;4906340;29;20115;-80
2021/07/19 13:09:26;;;;;;;3.40;1.90;;;24.10;65.90;;;;;;4923012;29;20035;-78
2021/07/19 13:12:11;;;;;;;2.30;1.73;;;24.20;66.00;;;;;;4917575;29;20055;-79